Time;durP1;ratioP1;P1;durP2;ratioP2;P2;SDS_P1;SDS_P2;PMS_P1;PMS_P2;Temp;Humidity;BMP_temperature;BMP_pressure;BME280_temperature;BME280_humidity;BME280_pressure;Samples;Min_cycle;Max_cycle;Signal;HPM_P1;HPM_P2
2021/04/04 00:01:21;;;;;;;22.73;8.73;;;;;;;5.49;65.66;101746.09;5058549;28;20228;-68
2021/04/04 00:03:47;;;;;;;23.17;9.47;;;;;;;5.47;65.77;101755.84;5060100;28;20588;-68
2021/04/04 00:06:13;;;;;;;22.83;10.30;;;;;;;5.45;65.65;101756.78;5057148;28;20205;-68
2021/04/04 00:08:39;;;;;;;21.43;8.87;;;;;;;5.42;66.08;101749.78;5062001;28;20219;-68
2021/04/04 00:11:06;;;;;;;21.43;8.57;;;;;;;5.41;65.60;101750.69;5065739;28;20659;-68
2021/04/04 00:13:34;;;;;;;27.47;9.00;;;;;;;5.40;66.29;101746.31;5064857;28;20290;-68
2021/04/04 00:16:00;;;;;;;22.63;7.90;;;;;;;5.38;66.53;101750.75;5063272;28;20201;-68
2021/04/04 00:18:26;;;;;;;22.13;8.07;;;;;;;5.37;66.26;101756.13;5061357;28;20638;-68
2021/04/04 00:20:52;;;;;;;23.07;7.03;;;;;;;5.36;67.09;101749.97;5070603;28;20231;-68
2021/04/04 00:23:18;;;;;;;19.50;7.63;;;;;;;5.35;67.06;101748.22;5064305;28;20210;-68
2021/04/04 00:25:44;;;;;;;18.87;6.97;;;;;;;5.34;67.06;101749.13;5067057;28;20284;-67
2021/04/04 00:28:10;;;;;;;18.03;7.27;;;;;;;5.34;66.86;101737.69;5061453;28;20405;-68
2021/04/04 00:30:37;;;;;;;19.40;7.30;;;;;;;5.33;67.24;101746.53;5066265;28;20211;-68
2021/04/04 00:33:04;;;;;;;15.83;6.93;;;;;;;5.32;67.00;101748.28;5071524;28;20204;-68
2021/04/04 00:35:30;;;;;;;18.40;6.97;;;;;;;5.33;67.19;101743.88;5063765;28;20225;-68
2021/04/04 00:37:56;;;;;;;18.30;6.83;;;;;;;5.34;67.34;101732.41;5068721;28;20204;-68
2021/04/04 00:40:24;;;;;;;19.60;7.50;;;;;;;5.33;67.30;101726.25;5071178;28;20233;-68
2021/04/04 00:42:51;;;;;;;17.40;7.40;;;;;;;5.34;67.16;101721.84;5067324;28;20690;-67
2021/04/04 00:45:19;;;;;;;20.03;7.20;;;;;;;5.34;67.64;101724.47;5055843;28;20221;-67
2021/04/04 00:47:47;;;;;;;16.90;7.17;;;;;;;5.35;67.55;101724.44;5057415;28;20547;-67
2021/04/04 00:50:15;;;;;;;15.60;7.20;;;;;;;5.35;67.43;101726.22;5056449;28;20205;-67
2021/04/04 00:52:41;;;;;;;16.50;6.37;;;;;;;5.34;67.49;101737.69;5059362;28;20212;-68
2021/04/04 00:55:08;;;;;;;20.27;7.43;;;;;;;5.32;67.17;101728.94;5055307;28;20231;-67
2021/04/04 00:57:35;;;;;;;13.40;6.73;;;;;;;5.30;67.74;101742.19;5056569;28;20202;-67
2021/04/04 01:00:03;;;;;;;17.13;6.57;;;;;;;5.28;67.15;101737.81;5056322;28;20224;-67
2021/04/04 01:02:29;;;;;;;24.47;7.37;;;;;;;5.29;67.33;101736.94;5058350;28;20748;-67
2021/04/04 01:04:58;;;;;;;18.30;6.80;;;;;;;5.28;67.05;101743.13;5070326;28;20240;-67
2021/04/04 01:07:24;;;;;;;20.13;7.13;;;;;;;5.26;67.44;101740.50;5070769;28;20200;-67
2021/04/04 01:09:50;;;;;;;14.97;6.13;;;;;;;5.26;67.08;101740.50;5070108;28;20284;-67
2021/04/04 01:12:23;;;;;;;19.63;6.27;;;;;;;5.23;67.41;101741.44;5063489;28;20206;-67
2021/04/04 01:14:56;;;;;;;18.73;6.87;;;;;;;5.23;67.35;101751.13;5064091;28;20244;-67
2021/04/04 01:17:23;;;;;;;21.33;7.63;;;;;;;5.22;67.10;101747.63;5066682;28;20262;-67
2021/04/04 01:20:06;;;;;;;14.60;6.43;;;;;;;5.23;67.89;101743.22;5053656;28;20632;-67
2021/04/04 01:23:03;;;;;;;19.27;6.17;;;;;;;5.25;67.22;101744.06;5059885;28;20478;-67
2021/04/04 01:25:34;;;;;;;18.00;7.20;;;;;;;5.26;67.79;101751.06;5068076;28;20704;-67
2021/04/04 01:28:05;;;;;;;20.57;6.87;;;;;;;5.26;67.70;101747.56;5057182;28;20732;-67
2021/04/04 01:30:34;;;;;;;16.33;6.60;;;;;;;5.27;67.79;101744.00;5061924;28;20196;-67
2021/04/04 01:33:03;;;;;;;20.63;7.40;;;;;;;5.28;67.34;101737.81;5069962;28;20197;-67
2021/04/04 01:35:32;;;;;;;14.60;7.30;;;;;;;5.28;68.04;101743.97;5066513;28;20278;-67
2021/04/04 01:38:00;;;;;;;25.30;7.27;;;;;;;5.30;67.53;101742.19;5069778;28;20692;-67
2021/04/04 01:40:30;;;;;;;16.70;6.37;;;;;;;5.30;67.97;101739.53;5070201;28;20221;-67
2021/04/04 01:43:01;;;;;;;16.80;6.40;;;;;;;5.30;67.50;101736.91;5069809;28;20223;-67
2021/04/04 01:45:28;;;;;;;18.53;5.87;;;;;;;5.31;68.06;101741.28;5069438;28;20248;-67
2021/04/04 01:47:55;;;;;;;16.37;6.70;;;;;;;5.32;67.42;101740.38;5070040;28;20201;-67
2021/04/04 01:50:22;;;;;;;17.20;5.83;;;;;;;5.34;67.39;101742.97;5063847;28;20211;-67
2021/04/04 01:52:50;;;;;;;17.80;5.60;;;;;;;5.32;67.72;101735.09;5062903;28;20670;-67
2021/04/04 01:55:17;;;;;;;16.77;5.93;;;;;;;5.32;67.73;101734.22;5057095;28;20225;-67
2021/04/04 01:57:45;;;;;;;19.10;6.70;;;;;;;5.30;67.51;101731.59;5055354;28;20252;-67
2021/04/04 02:00:14;;;;;;;14.30;6.60;;;;;;;5.31;67.41;101728.06;5056590;28;20664;-67
2021/04/04 02:02:41;;;;;;;12.10;5.47;;;;;;;5.31;67.44;101728.06;5052459;28;20673;-67
2021/04/04 02:05:10;;;;;;;14.43;5.90;;;;;;;5.32;67.73;101721.88;5061423;28;20846;-67
2021/04/04 02:07:41;;;;;;;15.43;5.77;;;;;;;5.32;67.27;101732.44;5069818;28;20258;-67
2021/04/04 02:10:09;;;;;;;16.27;6.20;;;;;;;5.32;67.46;101724.53;5070622;28;20201;-67
2021/04/04 02:12:35;;;;;;;22.10;5.83;;;;;;;5.33;67.49;101720.97;5062413;28;20201;-67
2021/04/04 02:15:05;;;;;;;18.60;5.67;;;;;;;5.33;67.45;101725.38;5065052;28;20225;-67
2021/04/04 02:17:35;;;;;;;14.03;6.13;;;;;;;5.32;67.64;101707.81;5059358;28;20213;-67
2021/04/04 02:20:02;;;;;;;14.00;5.10;;;;;;;5.31;67.57;101714.84;5055300;28;20282;-67
2021/04/04 02:22:28;;;;;;;13.87;5.87;;;;;;;5.31;67.41;101712.22;5060922;28;20254;-67
2021/04/04 02:24:54;;;;;;;14.87;5.50;;;;;;;5.33;67.24;101713.06;5055274;28;20240;-67
2021/04/04 02:27:20;;;;;;;14.37;5.60;;;;;;;5.33;67.31;101709.53;5074517;28;20275;-67
2021/04/04 02:29:46;;;;;;;21.37;6.13;;;;;;;5.31;67.51;101704.28;5066672;28;20688;-67
2021/04/04 02:32:14;;;;;;;16.30;5.77;;;;;;;5.29;67.53;101700.81;5073869;28;20208;-67
2021/04/04 02:34:44;;;;;;;21.50;6.07;;;;;;;5.29;67.37;101700.81;5066610;28;20229;-67
2021/04/04 02:37:13;;;;;;;16.90;5.30;;;;;;;5.28;67.44;101703.50;5073957;28;20233;-67
2021/04/04 02:39:45;;;;;;;12.93;5.73;;;;;;;5.29;66.84;101702.59;5074405;28;20232;-67
2021/04/04 02:42:14;;;;;;;15.77;5.70;;;;;;;5.28;67.21;101707.00;5066622;28;20209;-67
2021/04/04 02:44:40;;;;;;;16.37;5.67;;;;;;;5.29;66.96;101703.47;5057566;28;20233;-67
2021/04/04 02:47:11;;;;;;;12.53;5.20;;;;;;;5.27;67.04;101705.25;5073559;28;20207;-67
2021/04/04 02:49:38;;;;;;;17.77;5.80;;;;;;;5.28;67.02;101706.13;5074331;28;20209;-67
2021/04/04 02:52:07;;;;;;;14.83;4.93;;;;;;;5.26;67.63;101702.66;5073489;28;20205;-67
2021/04/04 02:54:38;;;;;;;20.40;5.40;;;;;;;5.26;67.00;101695.59;5057332;28;20229;-67
2021/04/04 02:57:06;;;;;;;22.03;5.47;;;;;;;5.26;67.29;101703.53;5070740;28;20201;-67
2021/04/04 02:59:38;;;;;;;14.43;5.60;;;;;;;5.24;67.08;101700.06;5064047;28;20229;-67
2021/04/04 03:02:06;;;;;;;14.03;5.57;;;;;;;5.24;67.84;101695.63;5064199;28;20556;-67
2021/04/04 03:04:36;;;;;;;12.77;4.43;;;;;;;5.24;67.39;101697.41;5064936;28;20221;-67
2021/04/04 03:07:03;;;;;;;13.90;5.53;;;;;;;5.24;67.91;101700.06;5064738;28;20918;-67
2021/04/04 03:09:31;;;;;;;18.70;5.10;;;;;;;5.24;67.71;101702.69;5064316;28;20205;-67
2021/04/04 03:12:00;;;;;;;14.50;5.17;;;;;;;5.24;67.56;101689.50;5060007;28;20316;-66
2021/04/04 03:14:27;;;;;;;19.53;5.73;;;;;;;5.23;67.42;101695.69;5073295;28;20232;-67
2021/04/04 03:16:54;;;;;;;18.33;5.03;;;;;;;5.22;67.52;101691.28;5065780;28;20205;-67
2021/04/04 03:19:21;;;;;;;18.33;5.50;;;;;;;5.21;67.99;101692.19;5061941;28;20206;-67
2021/04/04 03:21:49;;;;;;;16.33;5.17;;;;;;;5.21;67.57;101684.28;5061507;28;20193;-67
2021/04/04 03:24:16;;;;;;;14.20;5.93;;;;;;;5.21;68.24;101694.84;5066983;28;20612;-67
2021/04/04 03:26:44;;;;;;;13.90;5.37;;;;;;;5.20;68.11;101690.47;5063457;28;20687;-67
2021/04/04 03:29:11;;;;;;;17.70;6.50;;;;;;;5.18;67.97;101682.59;5071577;28;20220;-67
2021/04/04 03:31:39;;;;;;;13.70;5.47;;;;;;;5.17;68.31;101682.66;5073014;28;20661;-67
2021/04/04 03:34:06;;;;;;;14.93;6.33;;;;;;;5.18;68.25;101679.09;5061280;28;20233;-67
2021/04/04 03:36:32;;;;;;;15.13;6.20;;;;;;;5.19;67.94;101678.19;5073184;28;20213;-67
2021/04/04 03:38:59;;;;;;;14.70;5.60;;;;;;;5.19;68.06;101675.56;5068094;28;20224;-67
2021/04/04 03:41:26;;;;;;;15.07;6.33;;;;;;;5.19;67.88;101665.00;5067460;28;20225;-67
2021/04/04 03:43:53;;;;;;;15.50;6.33;;;;;;;5.18;68.35;101664.13;5072816;28;20220;-67
2021/04/04 03:46:24;;;;;;;19.07;6.10;;;;;;;5.18;67.67;101665.91;5072988;28;20212;-67
2021/04/04 03:48:52;;;;;;;15.80;6.80;;;;;;;5.17;67.97;101665.03;5055216;28;20611;-67
2021/04/04 03:51:23;;;;;;;14.63;6.47;;;;;;;5.17;67.95;101662.38;5065631;28;20205;-67
2021/04/04 03:53:50;;;;;;;13.60;5.70;;;;;;;5.18;68.13;101657.97;5071817;28;20724;-67
2021/04/04 03:56:23;;;;;;;14.90;5.77;;;;;;;5.18;67.49;101656.19;5065028;28;20686;-67
2021/04/04 03:58:50;;;;;;;13.63;6.00;;;;;;;5.17;67.79;101667.66;5059900;28;20712;-67
2021/04/04 04:01:18;;;;;;;17.93;6.77;;;;;;;5.15;67.62;101665.97;5064712;28;20237;-67
2021/04/04 04:03:47;;;;;;;16.07;6.67;;;;;;;5.15;68.11;101664.19;5068890;28;20221;-67
2021/04/04 04:06:14;;;;;;;13.67;6.30;;;;;;;5.14;68.07;101657.19;5071142;28;20212;-68
2021/04/04 04:08:42;;;;;;;17.17;6.47;;;;;;;5.14;67.53;101666.88;5062788;28;20206;-67
2021/04/04 04:11:09;;;;;;;14.53;6.50;;;;;;;5.12;67.82;101669.53;5065702;28;20255;-67
2021/04/04 04:13:36;;;;;;;17.17;6.50;;;;;;;5.11;67.75;101659.00;5056262;28;20781;-67
2021/04/04 04:16:03;;;;;;;16.17;7.03;;;;;;;5.10;67.41;101654.63;5057176;28;20205;-67
2021/04/04 04:18:30;;;;;;;15.77;6.83;;;;;;;5.08;68.26;101659.09;5071198;28;20201;-67
2021/04/04 04:20:57;;;;;;;16.07;6.27;;;;;;;5.07;67.80;101644.16;5064745;28;20217;-68
2021/04/04 04:23:24;;;;;;;14.90;6.80;;;;;;;5.04;67.73;101638.94;5064901;28;20911;-67
2021/04/04 04:25:52;;;;;;;18.10;6.87;;;;;;;5.03;68.33;101639.84;5063776;28;20209;-67
2021/04/04 04:28:19;;;;;;;17.07;6.50;;;;;;;5.03;68.04;101634.56;5070187;28;20224;-67
2021/04/04 04:30:46;;;;;;;19.57;6.20;;;;;;;5.02;68.09;101628.41;5069334;28;20197;-67
2021/04/04 04:33:16;;;;;;;18.57;6.00;;;;;;;5.01;67.97;101632.00;5065210;28;20225;-67
2021/04/04 04:35:43;;;;;;;16.13;6.30;;;;;;;5.01;67.86;101624.06;5057511;28;20228;-67
2021/04/04 04:38:11;;;;;;;15.77;6.33;;;;;;;4.99;68.05;101625.00;5070030;28;20597;-67
2021/04/04 04:40:38;;;;;;;16.37;6.67;;;;;;;4.98;68.09;101623.28;5060921;28;20236;-67
2021/04/04 04:43:08;;;;;;;15.27;6.30;;;;;;;4.99;67.71;101625.00;5067429;28;20279;-67
2021/04/04 04:45:36;;;;;;;17.23;6.47;;;;;;;4.98;67.95;101623.28;5069217;28;20254;-67
2021/04/04 04:48:03;;;;;;;14.73;6.87;;;;;;;5.00;67.87;101627.63;5071364;28;20204;-67
2021/04/04 04:50:29;;;;;;;14.50;7.07;;;;;;;5.01;68.08;101629.34;5070768;28;20198;-67
2021/04/04 04:52:58;;;;;;;13.50;6.53;;;;;;;5.02;68.37;101619.63;5066673;28;20292;-67
2021/04/04 04:55:26;;;;;;;18.63;7.37;;;;;;;5.01;68.21;101618.78;5056308;28;20229;-67
2021/04/04 04:57:54;;;;;;;15.57;6.47;;;;;;;5.00;67.95;101610.91;5067316;28;20205;-68
2021/04/04 05:00:22;;;;;;;16.40;7.63;;;;;;;4.97;68.01;101611.84;5067244;28;20221;-67
2021/04/04 05:02:49;;;;;;;17.67;7.43;;;;;;;4.97;68.26;101605.69;5057812;28;20205;-67
2021/04/04 05:05:17;;;;;;;19.00;7.13;;;;;;;4.98;68.46;101607.44;5069692;28;20635;-68
2021/04/04 05:07:44;;;;;;;18.83;6.90;;;;;;;4.97;68.55;101610.97;5071213;28;20213;-67
2021/04/04 05:10:13;;;;;;;17.07;6.80;;;;;;;4.97;68.71;101613.63;5071251;28;20197;-67
2021/04/04 05:12:45;;;;;;;14.97;7.43;;;;;;;4.97;68.52;101608.34;5057496;28;20209;-66
2021/04/04 05:15:12;;;;;;;18.90;6.50;;;;;;;4.96;68.22;101611.88;5070832;28;20693;-67
2021/04/04 05:17:38;;;;;;;18.93;7.33;;;;;;;4.95;68.38;101607.50;5062831;28;20197;-67
2021/04/04 05:20:07;;;;;;;19.43;6.73;;;;;;;4.95;68.38;101618.06;5071173;28;20590;-67
2021/04/04 05:22:33;;;;;;;13.83;6.63;;;;;;;4.95;68.58;101610.16;5070765;28;20213;-67
2021/04/04 05:25:00;;;;;;;13.63;6.47;;;;;;;4.94;68.45;101608.41;5066507;28;20625;-67
2021/04/04 05:27:26;;;;;;;16.80;6.57;;;;;;;4.95;68.79;101615.44;5067435;28;20209;-67
2021/04/04 05:29:57;;;;;;;17.33;6.60;;;;;;;4.95;69.10;101612.78;5064381;28;20216;-68
2021/04/04 05:32:23;;;;;;;17.37;6.80;;;;;;;4.95;68.72;101611.00;5062520;28;20213;-67
2021/04/04 05:34:49;;;;;;;15.63;6.27;;;;;;;4.96;68.72;101614.53;5066180;28;20758;-69
2021/04/04 05:37:16;;;;;;;19.13;6.80;;;;;;;4.95;68.75;101613.66;5067917;28;20205;-68
2021/04/04 05:39:42;;;;;;;22.57;7.77;;;;;;;4.96;68.90;101610.09;5068566;28;20205;-68
2021/04/04 05:42:09;;;;;;;17.23;6.97;;;;;;;4.96;68.68;101609.25;5060718;28;20208;-68
2021/04/04 05:44:41;;;;;;;18.93;6.37;;;;;;;4.97;69.25;101605.69;5063509;28;20221;-68
2021/04/04 05:47:15;;;;;;;15.77;6.20;;;;;;;4.97;68.98;101606.56;5070553;28;20205;-68
2021/04/04 05:49:53;;;;;;;14.90;6.47;;;;;;;4.98;68.88;101610.06;5063683;28;20287;-68
2021/04/04 05:52:32;;;;;;;12.57;5.97;;;;;;;5.00;68.78;101610.91;5062170;28;20208;-68
2021/04/04 05:55:26;;;;;;;14.97;7.27;;;;;;;5.03;69.33;101610.81;5060934;28;20229;-67
2021/04/04 05:57:55;;;;;;;18.20;8.17;;;;;;;5.02;69.16;101614.34;5067089;28;20207;-68
2021/04/04 06:00:24;;;;;;;19.20;8.10;;;;;;;5.03;68.82;101616.94;5066800;28;20337;-68
2021/04/04 06:03:29;;;;;;;15.67;7.10;;;;;;;5.04;69.43;101618.69;5064024;28;20213;-68
2021/04/04 06:06:05;;;;;;;18.37;6.50;;;;;;;5.06;69.16;101621.28;5059290;28;20201;-68
2021/04/04 06:09:08;;;;;;;13.43;6.70;;;;;;;5.07;69.51;101621.25;5065709;28;20216;-68
2021/04/04 06:11:53;;;;;;;19.03;6.80;;;;;;;5.08;69.37;101612.44;5057271;28;20198;-68
2021/04/04 06:14:26;;;;;;;17.13;6.60;;;;;;;5.11;69.35;101622.06;5070531;28;20233;-68
2021/04/04 06:16:54;;;;;;;13.43;5.80;;;;;;;5.13;68.94;101620.25;5058738;28;20202;-68
2021/04/04 06:19:36;;;;;;;14.23;5.57;;;;;;;5.14;69.31;101620.22;5053155;28;20209;-68
2021/04/04 06:22:10;;;;;;;18.93;5.80;;;;;;;5.16;68.74;101621.03;5068833;28;20220;-68
2021/04/04 06:24:43;;;;;;;14.83;5.37;;;;;;;5.18;68.53;101613.06;5060416;28;20378;-68
2021/04/04 06:27:14;;;;;;;13.50;5.63;;;;;;;5.19;69.06;101613.03;5060051;28;20213;-68
2021/04/04 06:30:04;;;;;;;13.30;5.30;;;;;;;5.20;68.39;101620.03;5056032;28;20213;-68
2021/04/04 06:32:39;;;;;;;12.60;5.30;;;;;;;5.23;68.70;101616.44;5064071;28;20201;-67
2021/04/04 06:35:15;;;;;;;13.97;5.17;;;;;;;5.24;68.79;101620.81;5057045;28;20232;-67
2021/04/04 06:38:05;;;;;;;10.37;4.10;;;;;;;5.26;68.40;101618.16;5067276;28;20655;-68
2021/04/04 06:40:38;;;;;;;11.60;4.37;;;;;;;5.28;67.81;101626.91;5055944;28;20217;-68
2021/04/04 06:43:11;;;;;;;13.47;5.30;;;;;;;5.29;67.95;101620.72;5074522;22;20753;-65
2021/04/04 06:45:44;;;;;;;13.53;4.20;;;;;;;5.32;68.03;101633.84;5044480;28;20193;-65
2021/04/04 06:48:31;;;;;;;13.27;4.33;;;;;;;5.34;67.17;101632.91;5047497;28;20205;-64
2021/04/04 06:51:04;;;;;;;16.73;5.60;;;;;;;5.37;67.38;101634.59;5049056;28;20364;-64
2021/04/04 06:53:41;;;;;;;12.40;4.07;;;;;;;5.40;67.08;101634.50;5048630;28;20214;-63
2021/04/04 06:56:18;;;;;;;16.10;4.93;;;;;;;5.41;66.12;101631.81;5047735;28;20216;-63
2021/04/04 06:58:58;;;;;;;12.50;4.00;;;;;;;5.43;66.45;101632.66;5043260;28;20208;-64
2021/04/04 07:01:42;;;;;;;12.33;3.40;;;;;;;5.49;66.29;101631.63;5042630;28;20224;-63
2021/04/04 07:04:14;;;;;;;15.67;3.97;;;;;;;5.49;66.08;101624.56;5046282;28;20206;-63
2021/04/04 07:07:02;;;;;;;14.43;4.27;;;;;;;5.50;65.53;101626.31;5045174;28;20578;-63
2021/04/04 07:09:46;;;;;;;12.07;3.53;;;;;;;5.50;65.32;101628.94;5045057;28;20733;-63
2021/04/04 07:12:31;;;;;;;12.33;3.30;;;;;;;5.52;65.47;101623.63;5049780;28;20261;-62
2021/04/04 07:15:08;;;;;;;13.87;3.40;;;;;;;5.54;65.48;101622.69;5051477;28;20247;-61
2021/04/04 07:17:55;;;;;;;13.33;4.60;;;;;;;5.59;65.49;101625.16;5049743;28;20205;-64
2021/04/04 07:20:40;;;;;;;12.87;4.77;;;;;;;5.63;65.37;101629.47;5052163;28;20229;-64
2021/04/04 07:23:33;;;;;;;9.80;3.73;;;;;;;5.66;65.18;101633.81;5048120;28;20225;-64
2021/04/04 07:26:03;;;;;;;9.80;4.67;;;;;;;5.67;64.90;101631.13;5046286;28;20197;-64
2021/04/04 07:28:53;;;;;;;11.37;4.43;;;;;;;5.65;65.02;101634.72;5044366;28;20207;-64
2021/04/04 07:31:26;;;;;;;14.53;4.80;;;;;;;5.62;64.48;101632.16;5042187;28;20556;-65
2021/04/04 07:34:00;;;;;;;12.20;4.30;;;;;;;5.59;64.19;101626.03;5041759;28;20225;-63
2021/04/04 07:36:32;;;;;;;13.40;4.47;;;;;;;5.58;63.79;101626.94;5038360;28;20219;-64
2021/04/04 07:39:04;;;;;;;10.27;4.60;;;;;;;5.58;63.91;101632.22;5039031;28;20209;-64
2021/04/04 07:41:37;;;;;;;14.43;4.93;;;;;;;5.61;63.31;101630.41;5050609;28;20225;-59
2021/04/04 07:44:13;;;;;;;11.53;4.77;;;;;;;5.63;63.11;101624.19;5053699;28;20325;-64
2021/04/04 07:46:48;;;;;;;10.50;3.90;;;;;;;5.63;62.78;101624.19;5048356;28;20213;-64
2021/04/04 07:49:26;;;;;;;12.20;4.10;;;;;;;5.64;62.83;101620.63;5047959;28;20205;-63
2021/04/04 07:51:56;;;;;;;11.97;3.97;;;;;;;5.70;62.63;101633.69;5049169;28;20209;-63
2021/04/04 07:54:31;;;;;;;10.47;4.10;;;;;;;5.74;62.07;101624.75;5046795;28;20752;-64
2021/04/04 07:57:04;;;;;;;13.03;4.30;;;;;;;5.78;62.43;101628.16;5043032;28;20264;-64
2021/04/04 07:59:36;;;;;;;10.33;4.30;;;;;;;5.81;61.67;101630.72;5045733;28;20202;-62
2021/04/04 08:02:16;;;;;;;13.57;4.07;;;;;;;5.82;61.39;101627.19;5045473;28;20230;-63
2021/04/04 08:04:48;;;;;;;11.73;4.43;;;;;;;5.81;61.10;101628.09;5046807;28;20251;-64
2021/04/04 08:07:19;;;;;;;11.97;6.87;;;;;;;5.81;60.92;101634.25;5047931;28;20211;-63
2021/04/04 08:09:52;;;;;;;11.83;4.60;;;;;;;5.82;60.78;101635.97;5044367;28;20214;-62
2021/04/04 08:12:30;;;;;;;8.03;3.97;;;;;;;5.84;60.41;101638.59;5044060;28;20245;-63
2021/04/04 08:15:02;;;;;;;11.00;3.30;;;;;;;5.85;60.40;101632.38;5047358;28;20210;-64
2021/04/04 08:17:28;;;;;;;11.40;4.60;;;;;;;5.86;60.35;101631.47;5043242;28;20202;-66
2021/04/04 08:20:01;;;;;;;17.50;3.57;;;;;;;5.90;59.97;101638.47;5046792;28;20577;-64
2021/04/04 08:22:30;;;;;;;13.73;3.73;;;;;;;5.91;59.90;101633.09;5044772;28;20218;-64
2021/04/04 08:25:02;;;;;;;8.97;3.60;;;;;;;5.94;59.54;101640.06;5040425;28;20202;-64
2021/04/04 08:27:32;;;;;;;11.37;3.93;;;;;;;5.93;59.26;101641.84;5042934;28;20198;-63
2021/04/04 08:30:03;;;;;;;12.37;4.00;;;;;;;5.93;59.21;101633.94;5045320;28;20213;-64
2021/04/04 08:32:36;;;;;;;12.27;4.10;;;;;;;5.98;59.33;101640.88;5041060;28;20222;-64
2021/04/04 08:35:04;;;;;;;9.10;3.53;;;;;;;6.01;59.08;101638.13;5046576;28;20231;-65
2021/04/04 08:37:35;;;;;;;12.53;3.90;;;;;;;6.05;59.16;101645.94;5043682;28;20678;-64
2021/04/04 08:40:05;;;;;;;11.90;3.60;;;;;;;6.09;58.83;101634.34;5043478;28;20514;-64
2021/04/04 08:42:33;;;;;;;13.37;3.63;;;;;;;6.12;58.57;101634.25;5042596;28;20942;-64
2021/04/04 08:45:05;;;;;;;12.33;3.50;;;;;;;6.16;58.46;101625.31;5047439;28;20205;-63
2021/04/04 08:47:32;;;;;;;13.70;9.17;;;;;;;6.23;58.31;101637.47;5041946;28;20592;-64
2021/04/04 08:50:01;;;;;;;8.47;3.87;;;;;;;6.24;58.33;101638.34;5040832;28;20197;-64
2021/04/04 08:52:31;;;;;;;14.20;3.90;;;;;;;6.27;58.46;101639.09;5040731;28;20737;-64
2021/04/04 08:54:57;;;;;;;10.87;3.50;;;;;;;6.28;57.67;101632.03;5036358;28;20213;-64
2021/04/04 08:57:31;;;;;;;9.10;3.90;;;;;;;6.29;57.81;101625.81;5037640;28;20220;-62
2021/04/04 08:59:57;;;;;;;8.33;3.57;;;;;;;6.33;57.83;101632.75;5049127;28;20217;-65
2021/04/04 09:02:28;;;;;;;13.17;5.00;;;;;;;6.39;58.02;101631.72;5044970;28;20237;-61
2021/04/04 09:05:03;;;;;;;9.20;4.20;;;;;;;6.44;58.04;101628.03;5044759;28;20268;-65
2021/04/04 09:07:33;;;;;;;11.77;6.30;;;;;;;6.48;57.58;101634.94;5046311;28;20205;-65
2021/04/04 09:10:02;;;;;;;8.77;4.33;;;;;;;6.50;57.55;101629.59;5049005;28;20224;-64
2021/04/04 09:12:32;;;;;;;9.03;3.23;;;;;;;6.53;57.70;101626.88;5041229;28;20222;-63
2021/04/04 09:15:05;;;;;;;10.30;3.90;;;;;;;6.55;57.57;101638.28;5050252;28;20224;-64
2021/04/04 09:17:32;;;;;;;8.20;3.70;;;;;;;6.58;57.50;101635.53;5046078;28;20683;-65
2021/04/04 09:20:00;;;;;;;10.77;3.80;;;;;;;6.58;57.44;101624.94;5045244;28;20221;-65
2021/04/04 09:22:26;;;;;;;7.63;3.63;;;;;;;6.60;57.26;101629.28;5050108;28;20638;-63
2021/04/04 09:24:54;;;;;;;7.30;3.30;;;;;;;6.61;57.20;101625.72;5049069;28;20620;-61
2021/04/04 09:27:22;;;;;;;6.93;3.50;;;;;;;6.65;57.15;101622.97;5048061;28;20205;-62
2021/04/04 09:29:52;;;;;;;8.53;3.00;;;;;;;6.67;57.30;101621.13;5046272;28;20305;-61
2021/04/04 09:32:30;;;;;;;8.90;3.10;;;;;;;6.72;57.04;101614.78;5043027;28;20623;-64
2021/04/04 09:34:57;;;;;;;8.47;3.37;;;;;;;6.76;57.17;101611.13;5045750;28;20193;-61
2021/04/04 09:37:25;;;;;;;8.03;3.47;;;;;;;6.82;57.05;101613.56;5047893;28;20198;-62
2021/04/04 09:39:52;;;;;;;15.20;3.53;;;;;;;6.87;57.23;101611.63;5045225;28;20201;-63
2021/04/04 09:42:19;;;;;;;13.07;4.30;;;;;;;6.93;57.41;101603.50;5040947;28;20225;-63
2021/04/04 09:44:46;;;;;;;7.07;3.30;;;;;;;7.04;57.25;101602.25;5044774;28;20584;-66
2021/04/04 09:47:13;;;;;;;5.20;2.53;;;;;;;7.14;57.26;101599.28;5047411;28;20282;-66
2021/04/04 09:49:42;;;;;;;5.33;2.80;;;;;;;7.21;57.03;101598.13;5044557;28;20292;-62
2021/04/04 09:52:20;;;;;;;8.07;2.87;;;;;;;7.30;56.45;101596.97;5046972;28;20230;-63
2021/04/04 09:55:00;;;;;;;5.50;2.30;;;;;;;7.35;56.24;101595.00;5047187;28;20206;-62
2021/04/04 09:57:26;;;;;;;9.03;2.53;;;;;;;7.39;55.54;101603.69;5043858;28;20285;-65
2021/04/04 09:59:52;;;;;;;6.90;3.07;;;;;;;7.38;55.78;101592.22;5045689;28;20679;-62
2021/04/04 10:02:35;;;;;;;6.00;2.63;;;;;;;7.42;55.41;101593.88;5045105;28;20236;-62
2021/04/04 10:05:02;;;;;;;6.23;3.07;;;;;;;7.46;55.62;101598.16;5045788;28;20202;-64
2021/04/04 10:07:29;;;;;;;5.57;2.90;;;;;;;7.53;55.62;101601.41;5046058;28;20209;-64
2021/04/04 10:09:56;;;;;;;9.57;3.30;;;;;;;7.56;55.53;101593.38;5041507;28;20209;-62
2021/04/04 10:12:22;;;;;;;5.10;3.27;;;;;;;7.58;55.21;101587.09;5045336;28;20233;-62
2021/04/04 10:15:02;;;;;;;9.63;4.53;;;;;;;7.61;55.55;101588.78;5043902;28;20690;-64
2021/04/04 10:17:28;;;;;;;8.20;3.70;;;;;;;7.63;54.85;101587.81;5046461;28;20201;-64
2021/04/04 10:19:57;;;;;;;5.97;2.97;;;;;;;7.68;55.28;101581.47;5041886;28;20213;-63
2021/04/04 10:22:24;;;;;;;10.43;3.80;;;;;;;7.70;55.22;101580.50;5043699;28;20312;-64
2021/04/04 10:24:50;;;;;;;6.10;3.70;;;;;;;7.72;55.01;101583.06;5042767;28;20545;-66
2021/04/04 10:27:24;;;;;;;5.67;2.87;;;;;;;7.72;55.60;101580.41;5039970;28;20220;-66
2021/04/04 10:30:06;;;;;;;7.77;4.50;;;;;;;7.72;54.74;101577.75;5042465;28;20237;-67
2021/04/04 10:32:32;;;;;;;6.33;3.80;;;;;;;7.71;54.98;101576.91;5032782;28;20726;-67
2021/04/04 10:34:59;;;;;;;5.53;2.77;;;;;;;7.71;55.28;101570.72;5040595;28;20208;-66
2021/04/04 10:37:28;;;;;;;3.60;2.43;;;;;;;7.72;55.71;101562.72;5035643;28;20206;-66
2021/04/04 10:39:56;;;;;;;4.93;2.30;;;;;;;7.75;55.87;101561.75;5046658;28;20202;-66
2021/04/04 10:42:23;;;;;;;3.93;1.63;;;;;;;7.77;55.30;101554.59;5031938;28;20238;-67
2021/04/04 10:44:49;;;;;;;6.07;2.30;;;;;;;7.79;55.34;101550.97;5044187;28;20206;-67
2021/04/04 10:47:22;;;;;;;8.17;2.40;;;;;;;7.83;55.30;101541.13;5034619;28;20273;-67
2021/04/04 10:49:48;;;;;;;4.40;2.20;;;;;;;7.83;56.06;101538.47;5033884;28;20198;-66
2021/04/04 10:52:15;;;;;;;5.23;2.13;;;;;;;7.87;55.99;101537.44;5033461;28;20229;-68
2021/04/04 10:54:43;;;;;;;5.57;2.63;;;;;;;7.91;56.49;101537.25;5046004;28;20263;-65
2021/04/04 10:57:10;;;;;;;5.20;2.43;;;;;;;7.94;56.25;101538.91;5053666;28;20217;-66
2021/04/04 10:59:36;;;;;;;3.63;2.70;;;;;;;7.94;55.99;101539.78;5054113;28;20259;-66
2021/04/04 11:02:03;;;;;;;3.53;2.13;;;;;;;7.95;56.56;101536.22;5039306;28;20237;-66
2021/04/04 11:04:31;;;;;;;2.40;1.20;;;;;;;7.94;56.53;101529.19;5035307;28;20206;-66
2021/04/04 11:06:58;;;;;;;2.07;1.30;;;;;;;7.90;56.44;101524.03;5038503;28;20660;-67
2021/04/04 11:09:25;;;;;;;2.00;1.33;;;;;;;7.88;56.33;101525.91;5045155;28;20723;-67
2021/04/04 11:11:54;;;;;;;2.93;1.33;;;;;;;7.84;56.51;101530.47;5052233;28;20327;-66
2021/04/04 11:14:21;;;;;;;4.00;1.60;;;;;;;7.82;57.54;101521.69;5033519;28;20211;-67
2021/04/04 11:16:52;;;;;;;3.80;2.23;;;;;;;7.83;57.27;101519.91;5037610;28;20208;-66
2021/04/04 11:19:20;;;;;;;3.00;1.80;;;;;;;7.87;57.00;101516.22;5053379;28;20205;-67
2021/04/04 11:21:47;;;;;;;3.60;1.80;;;;;;;7.89;57.74;101511.69;5037801;28;20236;-67
2021/04/04 11:24:14;;;;;;;3.60;1.70;;;;;;;7.90;57.43;101503.69;5053854;28;20218;-67
2021/04/04 11:26:48;;;;;;;3.23;1.83;;;;;;;7.91;57.17;101499.25;5053465;28;20292;-66
2021/04/04 11:29:17;;;;;;;1.77;1.60;;;;;;;7.93;57.56;101500.06;5045610;28;20675;-66
2021/04/04 11:31:44;;;;;;;6.03;2.00;;;;;;;7.94;57.81;101491.19;5031766;28;20301;-67
2021/04/04 11:34:39;;;;;;;3.63;1.97;;;;;;;7.96;57.67;101492.84;5040848;28;20320;-67
2021/04/04 11:37:26;;;;;;;3.33;1.70;;;;;;;7.97;57.49;101491.06;5024253;28;20766;-67
2021/04/04 11:40:20;;;;;;;3.23;1.50;;;;;;;8.02;57.47;101481.16;5040611;28;20209;-66
2021/04/04 11:42:48;;;;;;;2.57;1.20;;;;;;;8.04;57.16;101484.59;5035711;28;20896;-67